sensor_id;sensor_type;location;lat;lon;timestamp;pressure;altitude;pressure_sealevel;temperature;humidity
4586;BME280;2305;50.118;8.952;2023-02-27T00:01:49;101432.78;;;0.25;100.00
4586;BME280;2305;50.118;8.952;2023-02-27T00:04:18;101438.00;;;0.23;100.00
4586;BME280;2305;50.118;8.952;2023-02-27T00:06:46;101440.63;;;0.22;100.00
4586;BME280;2305;50.118;8.952;2023-02-27T00:09:14;101437.94;;;0.26;100.00
4586;BME280;2305;50.118;8.952;2023-02-27T00:11:45;101440.66;;;0.20;100.00
4586;BME280;2305;50.118;8.952;2023-02-27T00:14:12;101438.09;;;0.19;100.00
4586;BME280;2305;50.118;8.952;2023-02-27T00:16:43;101436.38;;;0.19;100.00
4586;BME280;2305;50.118;8.952;2023-02-27T00:19:11;101430.31;;;0.19;100.00
4586;BME280;2305;50.118;8.952;2023-02-27T00:21:42;101433.88;;;0.15;100.00
4586;BME280;2305;50.118;8.952;2023-02-27T00:24:11;101432.22;;;0.12;100.00
4586;BME280;2305;50.118;8.952;2023-02-27T00:26:39;101433.16;;;0.07;100.00
4586;BME280;2305;50.118;8.952;2023-02-27T00:29:07;101433.25;;;0.04;100.00
4586;BME280;2305;50.118;8.952;2023-02-27T00:31:35;101432.38;;;0.03;100.00
4586;BME280;2305;50.118;8.952;2023-02-27T00:34:05;101445.34;;;0.03;100.00
4586;BME280;2305;50.118;8.952;2023-02-27T00:36:36;101433.31;;;0.01;100.00
4586;BME280;2305;50.118;8.952;2023-02-27T00:39:15;101439.44;;;-0.03;100.00
4586;BME280;2305;50.118;8.952;2023-02-27T00:41:43;101437.75;;;-0.06;100.00
4586;BME280;2305;50.118;8.952;2023-02-27T00:44:12;101438.56;;;-0.02;100.00
4586;BME280;2305;50.118;8.952;2023-02-27T00:46:40;101446.31;;;-0.02;100.00
4586;BME280;2305;50.118;8.952;2023-02-27T00:49:08;101447.22;;;-0.03;100.00
4586;BME280;2305;50.118;8.952;2023-02-27T00:51:37;101450.72;;;-0.06;100.00
4586;BME280;2305;50.118;8.952;2023-02-27T00:54:05;101450.81;;;-0.10;100.00
4586;BME280;2305;50.118;8.952;2023-02-27T00:56:36;101451.69;;;-0.11;100.00
4586;BME280;2305;50.118;8.952;2023-02-27T00:59:03;101438.78;;;-0.13;100.00
4586;BME280;2305;50.118;8.952;2023-02-27T01:01:32;101450.03;;;-0.15;100.00
4586;BME280;2305;50.118;8.952;2023-02-27T01:04:02;101451.78;;;-0.15;100.00
4586;BME280;2305;50.118;8.952;2023-02-27T01:06:32;101448.28;;;-0.13;100.00
4586;BME280;2305;50.118;8.952;2023-02-27T01:09:00;101449.22;;;-0.15;100.00
4586;BME280;2305;50.118;8.952;2023-02-27T01:11:29;101443.13;;;-0.14;100.00
4586;BME280;2305;50.118;8.952;2023-02-27T01:14:00;101440.53;;;-0.13;100.00
4586;BME280;2305;50.118;8.952;2023-02-27T01:16:29;101438.78;;;-0.13;100.00
4586;BME280;2305;50.118;8.952;2023-02-27T01:18:57;101447.44;;;-0.13;100.00
4586;BME280;2305;50.118;8.952;2023-02-27T01:21:25;101446.63;;;-0.17;100.00
4586;BME280;2305;50.118;8.952;2023-02-27T01:23:55;101453.59;;;-0.19;100.00
4586;BME280;2305;50.118;8.952;2023-02-27T01:26:23;101444.97;;;-0.19;100.00
4586;BME280;2305;50.118;8.952;2023-02-27T01:28:52;101443.34;;;-0.23;100.00
4586;BME280;2305;50.118;8.952;2023-02-27T01:31:21;101437.28;;;-0.24;100.00
4586;BME280;2305;50.118;8.952;2023-02-27T01:33:53;101445.91;;;-0.23;100.00
4586;BME280;2305;50.118;8.952;2023-02-27T01:36:20;101441.66;;;-0.27;100.00
4586;BME280;2305;50.118;8.952;2023-02-27T01:38:48;101436.44;;;-0.24;100.00
4586;BME280;2305;50.118;8.952;2023-02-27T01:41:17;101438.88;;;-0.17;100.00
4586;BME280;2305;50.118;8.952;2023-02-27T01:43:56;101443.28;;;-0.22;100.00
4586;BME280;2305;50.118;8.952;2023-02-27T01:46:27;101437.38;;;-0.28;100.00
4586;BME280;2305;50.118;8.952;2023-02-27T01:48:59;101435.69;;;-0.29;100.00
4586;BME280;2305;50.118;8.952;2023-02-27T01:51:31;101433.13;;;-0.31;100.00
4586;BME280;2305;50.118;8.952;2023-02-27T01:54:00;101438.38;;;-0.34;100.00
4586;BME280;2305;50.118;8.952;2023-02-27T01:56:33;101437.47;;;-0.33;100.00
4586;BME280;2305;50.118;8.952;2023-02-27T01:59:03;101435.78;;;-0.35;100.00
4586;BME280;2305;50.118;8.952;2023-02-27T02:01:35;101428.13;;;-0.40;100.00
4586;BME280;2305;50.118;8.952;2023-02-27T02:04:10;101435.88;;;-0.38;100.00
4586;BME280;2305;50.118;8.952;2023-02-27T02:06:43;101433.22;;;-0.37;100.00
4586;BME280;2305;50.118;8.952;2023-02-27T02:09:13;101432.31;;;-0.34;100.00
4586;BME280;2305;50.118;8.952;2023-02-27T02:11:46;101433.19;;;-0.34;100.00
4586;BME280;2305;50.118;8.952;2023-02-27T02:14:16;101431.38;;;-0.30;100.00
4586;BME280;2305;50.118;8.952;2023-02-27T02:17:01;101428.81;;;-0.30;100.00
4586;BME280;2305;50.118;8.952;2023-02-27T02:19:52;101433.88;;;-0.26;100.00
4586;BME280;2305;50.118;8.952;2023-02-27T02:22:54;101429.53;;;-0.25;100.00
4586;BME280;2305;50.118;8.952;2023-02-27T02:26:11;101429.47;;;-0.21;100.00
4586;BME280;2305;50.118;8.952;2023-02-27T02:29:24;101439.75;;;-0.18;100.00
4586;BME280;2305;50.118;8.952;2023-02-27T02:32:30;101426.91;;;-0.22;100.00
4586;BME280;2305;50.118;8.952;2023-02-27T02:41:30;101442.31;;;-0.16;100.00
4586;BME280;2305;50.118;8.952;2023-02-27T02:44:03;101443.22;;;-0.19;100.00
4586;BME280;2305;50.118;8.952;2023-02-27T02:46:44;101440.66;;;-0.19;100.00
4586;BME280;2305;50.118;8.952;2023-02-27T02:49:21;101439.00;;;-0.23;100.00
4586;BME280;2305;50.118;8.952;2023-02-27T02:52:00;101439.03;;;-0.24;100.00
4586;BME280;2305;50.118;8.952;2023-02-27T02:54:36;101443.34;;;-0.25;100.00
4586;BME280;2305;50.118;8.952;2023-02-27T02:57:11;101436.50;;;-0.29;100.00
4586;BME280;2305;50.118;8.952;2023-02-27T02:59:46;101444.34;;;-0.30;100.00
4586;BME280;2305;50.118;8.952;2023-02-27T03:02:19;101433.22;;;-0.37;100.00
4586;BME280;2305;50.118;8.952;2023-02-27T03:04:52;101440.19;;;-0.39;100.00
4586;BME280;2305;50.118;8.952;2023-02-27T03:07:29;101448.00;;;-0.42;100.00
4586;BME280;2305;50.118;8.952;2023-02-27T03:10:02;101446.28;;;-0.43;100.00
4586;BME280;2305;50.118;8.952;2023-02-27T03:12:38;101445.47;;;-0.45;100.00
4586;BME280;2305;50.118;8.952;2023-02-27T03:15:12;101452.41;;;-0.47;100.00
4586;BME280;2305;50.118;8.952;2023-02-27T03:17:45;101442.94;;;-0.48;100.00
4586;BME280;2305;50.118;8.952;2023-02-27T03:20:19;101446.44;;;-0.49;100.00
4586;BME280;2305;50.118;8.952;2023-02-27T03:22:52;101449.06;;;-0.52;100.00
4586;BME280;2305;50.118;8.952;2023-02-27T03:25:24;101445.63;;;-0.52;100.00
4586;BME280;2305;50.118;8.952;2023-02-27T03:27:59;101450.81;;;-0.54;100.00
4586;BME280;2305;50.118;8.952;2023-02-27T03:30:33;101451.72;;;-0.56;100.00
4586;BME280;2305;50.118;8.952;2023-02-27T03:33:06;101453.44;;;-0.55;100.00
4586;BME280;2305;50.118;8.952;2023-02-27T03:35:42;101453.50;;;-0.58;100.00
4586;BME280;2305;50.118;8.952;2023-02-27T03:38:17;101454.41;;;-0.61;100.00
4586;BME280;2305;50.118;8.952;2023-02-27T03:40:53;101454.41;;;-0.62;100.00
4586;BME280;2305;50.118;8.952;2023-02-27T03:43:39;101463.06;;;-0.63;100.00
4586;BME280;2305;50.118;8.952;2023-02-27T03:46:14;101466.47;;;-0.60;100.00
4586;BME280;2305;50.118;8.952;2023-02-27T03:48:43;101458.75;;;-0.63;100.00
4586;BME280;2305;50.118;8.952;2023-02-27T03:51:12;101463.94;;;-0.63;100.00
4586;BME280;2305;50.118;8.952;2023-02-27T03:53:46;101465.66;;;-0.63;100.00
4586;BME280;2305;50.118;8.952;2023-02-27T03:56:18;101468.25;;;-0.63;100.00
4586;BME280;2305;50.118;8.952;2023-02-27T03:58:49;101463.97;;;-0.64;100.00
4586;BME280;2305;50.118;8.952;2023-02-27T04:01:18;101466.53;;;-0.63;100.00
4586;BME280;2305;50.118;8.952;2023-02-27T04:03:51;101467.44;;;-0.65;100.00
4586;BME280;2305;50.118;8.952;2023-02-27T04:06:43;101462.34;;;-0.70;100.00
4586;BME280;2305;50.118;8.952;2023-02-27T04:09:40;101473.53;;;-0.69;100.00
4586;BME280;2305;50.118;8.952;2023-02-27T04:12:23;101479.50;;;-0.66;100.00
4586;BME280;2305;50.118;8.952;2023-02-27T04:15:05;101475.22;;;-0.67;100.00
4586;BME280;2305;50.118;8.952;2023-02-27T04:17:41;101485.53;;;-0.65;100.00
4586;BME280;2305;50.118;8.952;2023-02-27T04:20:36;101475.22;;;-0.67;100.00
4586;BME280;2305;50.118;8.952;2023-02-27T04:23:09;101475.22;;;-0.67;100.00
4586;BME280;2305;50.118;8.952;2023-02-27T04:25:46;101482.13;;;-0.67;100.00
4586;BME280;2305;50.118;8.952;2023-02-27T04:28:18;101483.84;;;-0.68;100.00
4586;BME280;2305;50.118;8.952;2023-02-27T04:30:59;101485.66;;;-0.71;100.00
4586;BME280;2305;50.118;8.952;2023-02-27T04:33:40;101492.50;;;-0.67;100.00
4586;BME280;2305;50.118;8.952;2023-02-27T04:36:15;101495.09;;;-0.69;100.00
4586;BME280;2305;50.118;8.952;2023-02-27T04:38:48;101495.19;;;-0.73;100.00
4586;BME280;2305;50.118;8.952;2023-02-27T04:41:25;101496.91;;;-0.75;100.00
4586;BME280;2305;50.118;8.952;2023-02-27T04:43:56;101502.97;;;-0.76;100.00
4586;BME280;2305;50.118;8.952;2023-02-27T04:46:28;101502.06;;;-0.74;100.00
4586;BME280;2305;50.118;8.952;2023-02-27T04:49:01;101504.63;;;-0.72;100.00
4586;BME280;2305;50.118;8.952;2023-02-27T04:51:37;101507.16;;;-0.69;100.00
4586;BME280;2305;50.118;8.952;2023-02-27T04:54:09;101512.41;;;-0.72;100.00
4586;BME280;2305;50.118;8.952;2023-02-27T04:56:41;101508.13;;;-0.75;100.00
4586;BME280;2305;50.118;8.952;2023-02-27T04:59:15;101505.56;;;-0.76;100.00
4586;BME280;2305;50.118;8.952;2023-02-27T05:01:53;101498.69;;;-0.79;100.00
4586;BME280;2305;50.118;8.952;2023-02-27T05:04:25;101502.97;;;-0.76;100.00
4586;BME280;2305;50.118;8.952;2023-02-27T05:06:54;101495.34;;;-0.84;100.00
4586;BME280;2305;50.118;8.952;2023-02-27T05:09:27;101502.22;;;-0.83;100.00
4586;BME280;2305;50.118;8.952;2023-02-27T05:12:02;101506.53;;;-0.83;100.00
4586;BME280;2305;50.118;8.952;2023-02-27T05:14:34;101506.59;;;-0.86;100.00
4586;BME280;2305;50.118;8.952;2023-02-27T05:17:08;101498.03;;;-0.90;100.00
4586;BME280;2305;50.118;8.952;2023-02-27T05:19:41;101510.09;;;-0.89;100.00
4586;BME280;2305;50.118;8.952;2023-02-27T05:22:20;101515.28;;;-0.90;100.00
4586;BME280;2305;50.118;8.952;2023-02-27T05:24:52;101510.16;;;-0.93;100.00
4586;BME280;2305;50.118;8.952;2023-02-27T05:27:30;101512.75;;;-0.95;100.00
4586;BME280;2305;50.118;8.952;2023-02-27T05:30:03;101517.94;;;-0.93;100.00
4586;BME280;2305;50.118;8.952;2023-02-27T05:32:40;101518.88;;;-0.99;100.00
4586;BME280;2305;50.118;8.952;2023-02-27T05:35:15;101532.63;;;-0.97;100.00
4586;BME280;2305;50.118;8.952;2023-02-27T05:37:48;101531.78;;;-0.97;100.00
4586;BME280;2305;50.118;8.952;2023-02-27T05:40:22;101531.81;;;-0.99;100.00
4586;BME280;2305;50.118;8.952;2023-02-27T05:42:55;101538.66;;;-0.96;100.00
4586;BME280;2305;50.118;8.952;2023-02-27T05:45:31;101538.69;;;-0.98;100.00
4586;BME280;2305;50.118;8.952;2023-02-27T05:48:06;101535.25;;;-0.98;100.00
4586;BME280;2305;50.118;8.952;2023-02-27T05:50:37;101536.03;;;-0.95;100.00
4586;BME280;2305;50.118;8.952;2023-02-27T05:53:14;101533.53;;;-0.99;100.00
4586;BME280;2305;50.118;8.952;2023-02-27T05:55:46;101540.41;;;-0.97;100.00
4586;BME280;2305;50.118;8.952;2023-02-27T05:58:25;101542.09;;;-0.94;100.00
4586;BME280;2305;50.118;8.952;2023-02-27T06:01:00;101541.19;;;-0.93;100.00
4586;BME280;2305;50.118;8.952;2023-02-27T06:03:32;101546.38;;;-0.93;100.00
4586;BME280;2305;50.118;8.952;2023-02-27T06:06:03;101549.78;;;-0.93;100.00
4586;BME280;2305;50.118;8.952;2023-02-27T06:08:32;101553.25;;;-0.92;100.00
4586;BME280;2305;50.118;8.952;2023-02-27T06:11:00;101554.06;;;-0.90;100.00
4586;BME280;2305;50.118;8.952;2023-02-27T06:13:30;101554.97;;;-0.93;100.00
4586;BME280;2305;50.118;8.952;2023-02-27T06:16:04;101552.34;;;-0.90;100.00
4586;BME280;2305;50.118;8.952;2023-02-27T06:18:38;101559.22;;;-0.89;100.00
4586;BME280;2305;50.118;8.952;2023-02-27T06:21:05;101560.94;;;-0.88;100.00
4586;BME280;2305;50.118;8.952;2023-02-27T06:23:33;101566.09;;;-0.88;100.00
4586;BME280;2305;50.118;8.952;2023-02-27T06:26:02;101566.03;;;-0.83;100.00
4586;BME280;2305;50.118;8.952;2023-02-27T06:28:30;101572.06;;;-0.81;100.00
4586;BME280;2305;50.118;8.952;2023-02-27T06:31:00;101564.25;;;-0.80;100.00
4586;BME280;2305;50.118;8.952;2023-02-27T06:33:28;101572.00;;;-0.77;100.00
4586;BME280;2305;50.118;8.952;2023-02-27T06:35:58;101569.41;;;-0.77;100.00
4586;BME280;2305;50.118;8.952;2023-02-27T06:38:29;101577.97;;;-0.75;100.00
4586;BME280;2305;50.118;8.952;2023-02-27T06:40:57;101571.03;;;-0.73;100.00
4586;BME280;2305;50.118;8.952;2023-02-27T06:43:25;101572.72;;;-0.70;100.00
4586;BME280;2305;50.118;8.952;2023-02-27T06:45:54;101575.25;;;-0.66;100.00
4586;BME280;2305;50.118;8.952;2023-02-27T06:48:21;101579.41;;;-0.57;100.00
4586;BME280;2305;50.118;8.952;2023-02-27T06:50:51;101581.06;;;-0.53;100.00
4586;BME280;2305;50.118;8.952;2023-02-27T06:53:21;101581.03;;;-0.50;100.00
4586;BME280;2305;50.118;8.952;2023-02-27T06:55:49;101573.19;;;-0.46;100.00
4586;BME280;2305;50.118;8.952;2023-02-27T06:58:17;101574.88;;;-0.43;100.00
4586;BME280;2305;50.118;8.952;2023-02-27T07:00:45;101584.25;;;-0.36;100.00
4586;BME280;2305;50.118;8.952;2023-02-27T07:03:13;101586.69;;;-0.29;100.00
4586;BME280;2305;50.118;8.952;2023-02-27T07:05:42;101590.94;;;-0.25;100.00
4586;BME280;2305;50.118;8.952;2023-02-27T07:08:10;101583.06;;;-0.19;100.00
4586;BME280;2305;50.118;8.952;2023-02-27T07:10:40;101582.06;;;-0.12;100.00
4586;BME280;2305;50.118;8.952;2023-02-27T07:13:09;101593.22;;;-0.08;100.00
4586;BME280;2305;50.118;8.952;2023-02-27T07:15:42;101584.47;;;-0.02;100.00
4586;BME280;2305;50.118;8.952;2023-02-27T07:18:11;101591.25;;;0.04;100.00
4586;BME280;2305;50.118;8.952;2023-02-27T07:20:42;101591.25;;;0.05;100.00
4586;BME280;2305;50.118;8.952;2023-02-27T07:23:10;101586.78;;;0.12;100.00
4586;BME280;2305;50.118;8.952;2023-02-27T07:25:39;101597.03;;;0.19;100.00
4586;BME280;2305;50.118;8.952;2023-02-27T07:28:09;101590.78;;;0.28;100.00
4586;BME280;2305;50.118;8.952;2023-02-27T07:30:37;101584.66;;;0.32;100.00
4586;BME280;2305;50.118;8.952;2023-02-27T07:33:04;101597.53;;;0.36;100.00
4586;BME280;2305;50.118;8.952;2023-02-27T07:35:33;101592.25;;;0.41;100.00
4586;BME280;2305;50.118;8.952;2023-02-27T07:38:02;101597.41;;;0.44;100.00
4586;BME280;2305;50.118;8.952;2023-02-27T07:40:31;101595.63;;;0.46;100.00
4586;BME280;2305;50.118;8.952;2023-02-27T07:43:00;101597.13;;;0.56;100.00
4586;BME280;2305;50.118;8.952;2023-02-27T07:45:28;101596.06;;;0.66;100.00
4586;BME280;2305;50.118;8.952;2023-02-27T07:47:57;101604.63;;;0.69;100.00
4586;BME280;2305;50.118;8.952;2023-02-27T07:50:27;101611.44;;;0.75;100.00
4586;BME280;2305;50.118;8.952;2023-02-27T07:52:57;101609.53;;;0.81;100.00
4586;BME280;2305;50.118;8.952;2023-02-27T07:55:27;101606.88;;;0.86;100.00
4586;BME280;2305;50.118;8.952;2023-02-27T07:57:55;101615.25;;;0.98;100.00
4586;BME280;2305;50.118;8.952;2023-02-27T08:00:27;101622.91;;;1.03;100.00
4586;BME280;2305;50.118;8.952;2023-02-27T08:02:55;101613.31;;;1.08;100.00
4586;BME280;2305;50.118;8.952;2023-02-27T08:05:26;101619.16;;;1.16;100.00
4586;BME280;2305;50.118;8.952;2023-02-27T08:07:54;101616.38;;;1.23;100.00
4586;BME280;2305;50.118;8.952;2023-02-27T08:10:22;101621.28;;;1.35;100.00
4586;BME280;2305;50.118;8.952;2023-02-27T08:12:50;101617.88;;;1.33;100.00
4586;BME280;2305;50.118;8.952;2023-02-27T08:15:19;101617.56;;;1.47;100.00
4586;BME280;2305;50.118;8.952;2023-02-27T08:17:48;101618.19;;;1.56;100.00
4586;BME280;2305;50.118;8.952;2023-02-27T08:20:17;101621.41;;;1.67;100.00
4586;BME280;2305;50.118;8.952;2023-02-27T08:22:48;101623.88;;;1.72;100.00
4586;BME280;2305;50.118;8.952;2023-02-27T08:25:18;101623.81;;;1.73;100.00
4586;BME280;2305;50.118;8.952;2023-02-27T08:27:47;101618.53;;;1.78;100.00
4586;BME280;2305;50.118;8.952;2023-02-27T08:30:18;101617.41;;;1.86;100.00
4586;BME280;2305;50.118;8.952;2023-02-27T08:32:48;101616.22;;;1.99;100.00
4586;BME280;2305;50.118;8.952;2023-02-27T08:35:16;101615.13;;;2.08;100.00
4586;BME280;2305;50.118;8.952;2023-02-27T08:37:44;101612.47;;;2.09;100.00
4586;BME280;2305;50.118;8.952;2023-02-27T08:40:13;101613.19;;;2.16;100.00
4586;BME280;2305;50.118;8.952;2023-02-27T08:42:41;101610.91;;;2.36;100.00
4586;BME280;2305;50.118;8.952;2023-02-27T08:45:10;101614.09;;;2.45;100.00
4586;BME280;2305;50.118;8.952;2023-02-27T08:47:42;101610.91;;;2.36;100.00
4586;BME280;2305;50.118;8.952;2023-02-27T08:50:12;101604.75;;;2.38;100.00
4586;BME280;2305;50.118;8.952;2023-02-27T08:52:41;101601.03;;;2.47;100.00
4586;BME280;2305;50.118;8.952;2023-02-27T08:55:10;101601.78;;;2.50;100.00
4586;BME280;2305;50.118;8.952;2023-02-27T08:57:38;101611.06;;;2.60;100.00
4586;BME280;2305;50.118;8.952;2023-02-27T09:00:09;101606.50;;;2.68;100.00
4586;BME280;2305;50.118;8.952;2023-02-27T09:02:40;101610.00;;;2.67;100.00
4586;BME280;2305;50.118;8.952;2023-02-27T09:05:08;101613.44;;;2.68;100.00
4586;BME280;2305;50.118;8.952;2023-02-27T09:07:38;101617.09;;;2.90;97.47
4586;BME280;2305;50.118;8.952;2023-02-27T09:10:08;101623.19;;;2.90;97.93
4586;BME280;2305;50.118;8.952;2023-02-27T09:12:38;101628.81;;;3.04;97.36
4586;BME280;2305;50.118;8.952;2023-02-27T09:15:07;101628.81;;;3.04;96.04
4586;BME280;2305;50.118;8.952;2023-02-27T09:17:37;101632.00;;;3.14;95.27
4586;BME280;2305;50.118;8.952;2023-02-27T09:20:06;101628.28;;;2.93;95.55
4586;BME280;2305;50.118;8.952;2023-02-27T09:22:35;101633.25;;;3.02;96.18
4586;BME280;2305;50.118;8.952;2023-02-27T09:25:05;101629.41;;;3.14;95.37
4586;BME280;2305;50.118;8.952;2023-02-27T09:27:34;101631.84;;;3.20;96.18
4586;BME280;2305;50.118;8.952;2023-02-27T09:30:03;101646.88;;;3.38;95.34
4586;BME280;2305;50.118;8.952;2023-02-27T09:32:33;101644.50;;;3.30;93.76
4586;BME280;2305;50.118;8.952;2023-02-27T09:35:01;101639.03;;;3.39;92.82
4586;BME280;2305;50.118;8.952;2023-02-27T09:37:29;101637.31;;;3.38;92.55
4586;BME280;2305;50.118;8.952;2023-02-27T09:39:57;101638.53;;;3.54;91.43
4586;BME280;2305;50.118;8.952;2023-02-27T09:42:34;101644.16;;;3.68;91.92
4586;BME280;2305;50.118;8.952;2023-02-27T09:45:05;101650.69;;;3.81;92.37
4586;BME280;2305;50.118;8.952;2023-02-27T09:47:36;101651.72;;;3.76;90.48
4586;BME280;2305;50.118;8.952;2023-02-27T09:50:16;101648.28;;;3.75;90.94
4586;BME280;2305;50.118;8.952;2023-02-27T09:52:49;101661.19;;;4.04;90.47
4586;BME280;2305;50.118;8.952;2023-02-27T09:55:20;101659.50;;;4.03;89.57
4586;BME280;2305;50.118;8.952;2023-02-27T09:57:53;101657.78;;;4.02;90.88
4586;BME280;2305;50.118;8.952;2023-02-27T10:00:38;101659.81;;;4.18;89.58
4586;BME280;2305;50.118;8.952;2023-02-27T10:03:32;101654.22;;;4.29;89.43
4586;BME280;2305;50.118;8.952;2023-02-27T10:06:19;101665.94;;;4.42;87.75
4586;BME280;2305;50.118;8.952;2023-02-27T10:09:08;101656.44;;;4.39;85.24
4586;BME280;2305;50.118;8.952;2023-02-27T10:11:48;101659.72;;;4.46;85.96
4586;BME280;2305;50.118;8.952;2023-02-27T10:14:28;101655.81;;;4.57;86.30
4586;BME280;2305;50.118;8.952;2023-02-27T10:17:01;101652.78;;;4.69;85.09
4586;BME280;2305;50.118;8.952;2023-02-27T10:19:33;101642.34;;;4.69;84.29
4586;BME280;2305;50.118;8.952;2023-02-27T10:22:10;101643.00;;;4.74;84.35
4586;BME280;2305;50.118;8.952;2023-02-27T10:24:44;101645.91;;;4.90;84.20
4586;BME280;2305;50.118;8.952;2023-02-27T10:27:16;101645.00;;;4.91;80.70
4586;BME280;2305;50.118;8.952;2023-02-27T10:29:47;101647.38;;;4.97;80.62
4586;BME280;2305;50.118;8.952;2023-02-27T10:32:18;101650.31;;;5.11;80.02
4586;BME280;2305;50.118;8.952;2023-02-27T10:34:53;101651.97;;;5.13;80.45
4586;BME280;2305;50.118;8.952;2023-02-27T10:37:23;101649.78;;;5.24;80.65
4586;BME280;2305;50.118;8.952;2023-02-27T10:39:55;101649.25;;;5.38;79.58
4586;BME280;2305;50.118;8.952;2023-02-27T10:42:29;101648.09;;;5.66;80.02
4586;BME280;2305;50.118;8.952;2023-02-27T10:44:59;101650.72;;;5.88;75.93
4586;BME280;2305;50.118;8.952;2023-02-27T10:47:29;101654.25;;;5.87;76.94
4586;BME280;2305;50.118;8.952;2023-02-27T10:49:57;101646.31;;;6.10;79.07
4586;BME280;2305;50.118;8.952;2023-02-27T10:52:27;101643.69;;;6.10;76.96
4586;BME280;2305;50.118;8.952;2023-02-27T10:55:15;101657.22;;;5.99;74.39
4586;BME280;2305;50.118;8.952;2023-02-27T10:57:45;101652.44;;;6.09;73.99
4586;BME280;2305;50.118;8.952;2023-02-27T11:00:37;101650.47;;;6.14;73.23
4586;BME280;2305;50.118;8.952;2023-02-27T11:03:17;101639.16;;;6.13;71.61
4586;BME280;2305;50.118;8.952;2023-02-27T11:05:52;101644.84;;;6.43;72.30
4586;BME280;2305;50.118;8.952;2023-02-27T11:08:23;101631.38;;;6.52;70.24
4586;BME280;2305;50.118;8.952;2023-02-27T11:10:59;101632.97;;;6.36;69.49
4586;BME280;2305;50.118;8.952;2023-02-27T11:13:30;101628.97;;;6.27;69.21
4586;BME280;2305;50.118;8.952;2023-02-27T11:16:11;101633.06;;;6.33;69.73
4586;BME280;2305;50.118;8.952;2023-02-27T11:18:41;101636.75;;;6.29;70.88
4586;BME280;2305;50.118;8.952;2023-02-27T11:21:14;101629.13;;;6.43;70.05
4586;BME280;2305;50.118;8.952;2023-02-27T11:24:05;101617.44;;;6.70;68.87
4586;BME280;2305;50.118;8.952;2023-02-27T11:26:35;101611.72;;;6.99;69.21
4586;BME280;2305;50.118;8.952;2023-02-27T11:29:09;101614.13;;;7.22;70.44
4586;BME280;2305;50.118;8.952;2023-02-27T11:31:47;101608.19;;;7.54;68.47
4586;BME280;2305;50.118;8.952;2023-02-27T11:34:21;101607.84;;;7.78;66.17
4586;BME280;2305;50.118;8.952;2023-02-27T11:36:52;101596.03;;;7.87;65.45
4586;BME280;2305;50.118;8.952;2023-02-27T11:39:29;101593.19;;;7.91;61.36
4586;BME280;2305;50.118;8.952;2023-02-27T11:42:11;101606.22;;;7.76;61.37
4586;BME280;2305;50.118;8.952;2023-02-27T11:44:53;101590.94;;;7.84;61.58
4586;BME280;2305;50.118;8.952;2023-02-27T11:47:31;101579.97;;;7.76;63.17
4586;BME280;2305;50.118;8.952;2023-02-27T11:50:12;101583.22;;;7.81;61.93
4586;BME280;2305;50.118;8.952;2023-02-27T11:52:49;101582.38;;;7.80;60.78
4586;BME280;2305;50.118;8.952;2023-02-27T11:55:22;101578.44;;;7.89;63.41
4586;BME280;2305;50.118;8.952;2023-02-27T11:57:57;101573.72;;;7.78;61.93
4586;BME280;2305;50.118;8.952;2023-02-27T12:00:37;101571.72;;;7.83;64.31
4586;BME280;2305;50.118;8.952;2023-02-27T12:03:16;101565.22;;;8.07;63.87
4586;BME280;2305;50.118;8.952;2023-02-27T12:05:50;101552.19;;;8.23;60.04
4586;BME280;2305;50.118;8.952;2023-02-27T12:08:29;101563.28;;;8.11;59.27
4586;BME280;2305;50.118;8.952;2023-02-27T12:11:03;101553.72;;;8.27;59.39
4586;BME280;2305;50.118;8.952;2023-02-27T12:13:42;101554.16;;;8.35;56.91
4586;BME280;2305;50.118;8.952;2023-02-27T12:16:20;101554.63;;;8.43;56.03
4586;BME280;2305;50.118;8.952;2023-02-27T12:18:53;101551.44;;;8.21;57.01
4586;BME280;2305;50.118;8.952;2023-02-27T12:21:26;101554.16;;;8.18;58.72
4586;BME280;2305;50.118;8.952;2023-02-27T12:24:01;101545.41;;;8.02;56.37
4586;BME280;2305;50.118;8.952;2023-02-27T12:26:38;101537.94;;;7.77;59.17
4586;BME280;2305;50.118;8.952;2023-02-27T12:29:16;101527.72;;;7.88;58.27
4586;BME280;2305;50.118;8.952;2023-02-27T12:31:49;101523.84;;;7.95;55.82
4586;BME280;2305;50.118;8.952;2023-02-27T12:34:26;101522.19;;;7.77;53.69
4586;BME280;2305;50.118;8.952;2023-02-27T12:36:59;101525.09;;;8.05;52.54
4586;BME280;2305;50.118;8.952;2023-02-27T12:39:28;101530.03;;;7.94;51.72
4586;BME280;2305;50.118;8.952;2023-02-27T12:42:14;101524.56;;;7.82;50.60
4586;BME280;2305;50.118;8.952;2023-02-27T12:45:09;101530.22;;;7.57;51.38
4586;BME280;2305;50.118;8.952;2023-02-27T12:47:45;101531.28;;;7.01;51.27
4586;BME280;2305;50.118;8.952;2023-02-27T12:50:20;101523.81;;;6.75;53.05
4586;BME280;2305;50.118;8.952;2023-02-27T12:53:00;101532.16;;;6.64;53.82
4586;BME280;2305;50.118;8.952;2023-02-27T12:55:30;101535.13;;;6.57;53.05
4586;BME280;2305;50.118;8.952;2023-02-27T12:58:24;101538.63;;;6.37;53.05
4586;BME280;2305;50.118;8.952;2023-02-27T13:00:58;101535.72;;;6.25;54.93
4586;BME280;2305;50.118;8.952;2023-02-27T13:03:32;101532.41;;;6.21;53.63
4586;BME280;2305;50.118;8.952;2023-02-27T13:06:12;101534.59;;;6.30;54.09
4586;BME280;2305;50.118;8.952;2023-02-27T13:09:00;101537.16;;;6.50;53.84
4586;BME280;2305;50.118;8.952;2023-02-27T13:11:39;101525.00;;;6.86;54.39
4586;BME280;2305;50.118;8.952;2023-02-27T13:14:19;101516.03;;;7.61;53.84
4586;BME280;2305;50.118;8.952;2023-02-27T13:16:55;101518.31;;;8.34;52.81
4586;BME280;2305;50.118;8.952;2023-02-27T13:19:31;101516.88;;;8.92;51.86
4586;BME280;2305;50.118;8.952;2023-02-27T13:22:09;101512.16;;;9.57;49.75
4586;BME280;2305;50.118;8.952;2023-02-27T13:24:44;101513.56;;;9.62;47.46
4586;BME280;2305;50.118;8.952;2023-02-27T13:27:18;101505.84;;;9.30;45.24
4586;BME280;2305;50.118;8.952;2023-02-27T13:29:53;101493.47;;;9.61;47.07
4586;BME280;2305;50.118;8.952;2023-02-27T13:32:32;101501.50;;;9.74;46.62
4586;BME280;2305;50.118;8.952;2023-02-27T13:35:24;101501.06;;;9.22;45.00
4586;BME280;2305;50.118;8.952;2023-02-27T13:37:56;101524.53;;;9.25;47.22
4586;BME280;2305;50.118;8.952;2023-02-27T13:40:34;101508.09;;;9.51;45.32
4586;BME280;2305;50.118;8.952;2023-02-27T13:43:26;101505.69;;;9.33;44.03
4586;BME280;2305;50.118;8.952;2023-02-27T13:45:56;101512.38;;;9.38;44.42
4586;BME280;2305;50.118;8.952;2023-02-27T13:48:45;101505.44;;;9.37;43.60
4586;BME280;2305;50.118;8.952;2023-02-27T13:51:40;101499.91;;;9.71;44.20